sensor_id;sensor_type;location;lat;lon;timestamp;pressure;altitude;pressure_sealevel;temperature;humidity
78855;BME280;68206;59.956;30.234;2023-05-10T00:00:17;102253.13;;;9.34;38.79
78855;BME280;68206;59.956;30.234;2023-05-10T00:02:45;102254.91;;;9.35;38.46
78855;BME280;68206;59.956;30.234;2023-05-10T00:05:15;102261.97;;;9.36;38.20
78855;BME280;68206;59.956;30.234;2023-05-10T00:07:43;102251.38;;;9.36;36.81
78855;BME280;68206;59.956;30.234;2023-05-10T00:10:12;102258.44;;;9.37;36.49
78855;BME280;68206;59.956;30.234;2023-05-10T00:12:40;102259.31;;;9.36;37.50
78855;BME280;68206;59.956;30.234;2023-05-10T00:15:09;102261.09;;;9.34;39.27
78855;BME280;68206;59.956;30.234;2023-05-10T00:17:37;102269.03;;;9.30;40.00
78855;BME280;68206;59.956;30.234;2023-05-10T00:20:06;102269.91;;;9.23;41.00
78855;BME280;68206;59.956;30.234;2023-05-10T00:22:36;102277.84;;;9.20;40.74
78855;BME280;68206;59.956;30.234;2023-05-10T00:25:05;102280.50;;;9.17;41.45
78855;BME280;68206;59.956;30.234;2023-05-10T00:27:34;102271.66;;;9.15;41.48
78855;BME280;68206;59.956;30.234;2023-05-10T00:30:02;102275.19;;;9.14;41.81
78855;BME280;68206;59.956;30.234;2023-05-10T00:32:31;102269.91;;;9.11;42.10
78855;BME280;68206;59.956;30.234;2023-05-10T00:34:59;102269.03;;;9.11;42.16
78855;BME280;68206;59.956;30.234;2023-05-10T00:37:27;102270.78;;;9.10;42.44
78855;BME280;68206;59.956;30.234;2023-05-10T00:39:56;102272.53;;;9.08;43.18
78855;BME280;68206;59.956;30.234;2023-05-10T00:42:26;102269.00;;;9.02;43.06
78855;BME280;68206;59.956;30.234;2023-05-10T00:44:54;102272.53;;;8.99;44.05
78855;BME280;68206;59.956;30.234;2023-05-10T00:47:23;102275.16;;;8.96;44.17
78855;BME280;68206;59.956;30.234;2023-05-10T00:49:51;102276.03;;;8.94;44.78
78855;BME280;68206;59.956;30.234;2023-05-10T00:52:19;102276.91;;;8.91;44.64
78855;BME280;68206;59.956;30.234;2023-05-10T00:54:51;102272.50;;;8.88;45.49
78855;BME280;68206;59.956;30.234;2023-05-10T00:57:21;102273.38;;;8.84;45.10
78855;BME280;68206;59.956;30.234;2023-05-10T00:59:50;102274.25;;;8.82;45.72
78855;BME280;68206;59.956;30.234;2023-05-10T01:02:18;102279.53;;;8.74;45.93
78855;BME280;68206;59.956;30.234;2023-05-10T01:04:47;102283.94;;;8.72;45.88
78855;BME280;68206;59.956;30.234;2023-05-10T01:07:15;102278.63;;;8.68;46.32
78855;BME280;68206;59.956;30.234;2023-05-10T01:09:43;102283.91;;;8.65;45.62
78855;BME280;68206;59.956;30.234;2023-05-10T01:12:11;102275.97;;;8.60;46.40
78855;BME280;68206;59.956;30.234;2023-05-10T01:14:41;102275.94;;;8.57;45.71
78855;BME280;68206;59.956;30.234;2023-05-10T01:17:11;102272.41;;;8.57;46.84
78855;BME280;68206;59.956;30.234;2023-05-10T01:19:41;102275.94;;;8.57;45.92
78855;BME280;68206;59.956;30.234;2023-05-10T01:22:30;102274.16;;;8.58;45.37
78855;BME280;68206;59.956;30.234;2023-05-10T01:25:26;102267.13;;;8.58;45.18
78855;BME280;68206;59.956;30.234;2023-05-10T01:28:08;102260.06;;;8.59;47.67
78855;BME280;68206;59.956;30.234;2023-05-10T01:33:55;102260.97;;;8.61;49.25
78855;BME280;68206;59.956;30.234;2023-05-10T01:36:30;102258.31;;;8.59;49.05
78855;BME280;68206;59.956;30.234;2023-05-10T01:39:02;102260.09;;;8.60;50.08
78855;BME280;68206;59.956;30.234;2023-05-10T01:41:40;102262.72;;;8.63;50.01
78855;BME280;68206;59.956;30.234;2023-05-10T01:44:17;102257.47;;;8.68;48.74
78855;BME280;68206;59.956;30.234;2023-05-10T01:46:51;102254.81;;;8.71;48.44
78855;BME280;68206;59.956;30.234;2023-05-10T01:49:25;102255.72;;;8.76;47.33
78855;BME280;68206;59.956;30.234;2023-05-10T01:51:55;102257.50;;;8.84;48.03
78855;BME280;68206;59.956;30.234;2023-05-10T01:54:27;102259.28;;;8.93;46.75
78855;BME280;68206;59.956;30.234;2023-05-10T01:57:00;102252.25;;;9.04;46.07
78855;BME280;68206;59.956;30.234;2023-05-10T01:59:30;102254.00;;;9.14;45.68
78855;BME280;68206;59.956;30.234;2023-05-10T02:02:01;102259.31;;;9.25;45.93
78855;BME280;68206;59.956;30.234;2023-05-10T02:04:33;102255.78;;;9.34;45.70
78855;BME280;68206;59.956;30.234;2023-05-10T02:07:04;102251.38;;;9.45;44.41
78855;BME280;68206;59.956;30.234;2023-05-10T02:09:34;102251.38;;;9.55;45.78
78855;BME280;68206;59.956;30.234;2023-05-10T02:12:04;102254.00;;;9.67;44.76
78855;BME280;68206;59.956;30.234;2023-05-10T02:14:35;102259.25;;;9.81;45.03
78855;BME280;68206;59.956;30.234;2023-05-10T02:17:06;102267.22;;;9.92;44.21
78855;BME280;68206;59.956;30.234;2023-05-10T02:19:40;102263.63;;;10.08;45.47
78855;BME280;68206;59.956;30.234;2023-05-10T02:22:09;102259.19;;;10.21;44.93
78855;BME280;68206;59.956;30.234;2023-05-10T02:24:38;102262.69;;;10.32;44.90
78855;BME280;68206;59.956;30.234;2023-05-10T02:27:08;102266.22;;;10.43;44.36
78855;BME280;68206;59.956;30.234;2023-05-10T02:29:38;102263.53;;;10.49;42.59
78855;BME280;68206;59.956;30.234;2023-05-10T02:32:08;102272.31;;;10.60;41.80
78855;BME280;68206;59.956;30.234;2023-05-10T02:34:40;102270.47;;;10.73;40.92
78855;BME280;68206;59.956;30.234;2023-05-10T02:37:09;102266.88;;;10.84;42.02
78855;BME280;68206;59.956;30.234;2023-05-10T02:39:38;102278.31;;;10.93;43.34
78855;BME280;68206;59.956;30.234;2023-05-10T02:42:11;102273.81;;;11.05;42.63
78855;BME280;68206;59.956;30.234;2023-05-10T02:44:43;102278.13;;;11.20;43.17
78855;BME280;68206;59.956;30.234;2023-05-10T02:47:14;102270.94;;;11.34;41.79
78855;BME280;68206;59.956;30.234;2023-05-10T02:49:44;102271.66;;;11.53;41.67
78855;BME280;68206;59.956;30.234;2023-05-10T02:52:15;102268.84;;;11.74;40.70
78855;BME280;68206;59.956;30.234;2023-05-10T02:54:45;102266.78;;;12.00;40.53
78855;BME280;68206;59.956;30.234;2023-05-10T02:57:16;102271.91;;;12.20;40.44
78855;BME280;68206;59.956;30.234;2023-05-10T02:59:46;102262.03;;;12.30;40.57
78855;BME280;68206;59.956;30.234;2023-05-10T03:02:14;102265.47;;;12.39;39.62
78855;BME280;68206;59.956;30.234;2023-05-10T03:04:43;102266.91;;;12.65;39.13
78855;BME280;68206;59.956;30.234;2023-05-10T03:07:11;102260.94;;;13.10;37.76
78855;BME280;68206;59.956;30.234;2023-05-10T03:09:40;102262.84;;;13.57;37.42
78855;BME280;68206;59.956;30.234;2023-05-10T03:12:14;102262.66;;;14.14;37.19
78855;BME280;68206;59.956;30.234;2023-05-10T03:14:49;102263.16;;;14.77;37.85
78855;BME280;68206;59.956;30.234;2023-05-10T03:17:25;102260.56;;;15.48;37.33
78855;BME280;68206;59.956;30.234;2023-05-10T03:19:58;102271.28;;;16.45;36.38
78855;BME280;68206;59.956;30.234;2023-05-10T03:22:34;102264.50;;;17.48;34.35
78855;BME280;68206;59.956;30.234;2023-05-10T03:25:08;102263.19;;;18.61;32.72
78855;BME280;68206;59.956;30.234;2023-05-10T03:27:41;102263.88;;;19.74;30.47
78855;BME280;68206;59.956;30.234;2023-05-10T03:30:12;102262.91;;;20.94;29.12
78855;BME280;68206;59.956;30.234;2023-05-10T03:32:41;102261.25;;;22.15;27.44
78855;BME280;68206;59.956;30.234;2023-05-10T03:35:11;102266.72;;;23.42;25.84
78855;BME280;68206;59.956;30.234;2023-05-10T03:37:41;102264.19;;;24.43;24.28
78855;BME280;68206;59.956;30.234;2023-05-10T03:40:09;102259.66;;;25.13;23.19
78855;BME280;68206;59.956;30.234;2023-05-10T03:42:40;102267.53;;;25.84;21.83
78855;BME280;68206;59.956;30.234;2023-05-10T03:45:09;102261.16;;;26.23;19.92
78855;BME280;68206;59.956;30.234;2023-05-10T03:47:37;102258.03;;;26.29;19.23
78855;BME280;68206;59.956;30.234;2023-05-10T03:50:06;102256.91;;;26.06;18.08
78855;BME280;68206;59.956;30.234;2023-05-10T03:52:36;102258.03;;;26.29;17.31
78855;BME280;68206;59.956;30.234;2023-05-10T03:55:06;102256.75;;;26.83;16.90
78855;BME280;68206;59.956;30.234;2023-05-10T03:57:34;102257.63;;;27.44;16.52
78855;BME280;68206;59.956;30.234;2023-05-10T04:00:06;102263.91;;;27.92;15.83
78855;BME280;68206;59.956;30.234;2023-05-10T04:02:40;102269.38;;;28.49;15.73
78855;BME280;68206;59.956;30.234;2023-05-10T04:05:16;102264.03;;;28.59;15.12
78855;BME280;68206;59.956;30.234;2023-05-10T04:07:45;102265.16;;;29.01;14.91
78855;BME280;68206;59.956;30.234;2023-05-10T04:10:16;102259.31;;;29.49;14.96
78855;BME280;68206;59.956;30.234;2023-05-10T04:12:45;102254.28;;;29.65;14.21
78855;BME280;68206;59.956;30.234;2023-05-10T04:15:13;102262.81;;;30.03;14.42
78855;BME280;68206;59.956;30.234;2023-05-10T04:17:41;102262.34;;;30.50;14.97
78855;BME280;68206;59.956;30.234;2023-05-10T04:20:11;102256.72;;;30.81;15.34
78855;BME280;68206;59.956;30.234;2023-05-10T04:22:39;102256.28;;;31.26;13.97
78855;BME280;68206;59.956;30.234;2023-05-10T04:25:09;102250.09;;;31.62;12.54
78855;BME280;68206;59.956;30.234;2023-05-10T04:27:37;102256.13;;;32.04;13.11
78855;BME280;68206;59.956;30.234;2023-05-10T04:30:06;102255.13;;;32.15;12.59
78855;BME280;68206;59.956;30.234;2023-05-10T04:32:35;102258.09;;;32.31;11.35
78855;BME280;68206;59.956;30.234;2023-05-10T04:35:03;102262.88;;;32.76;11.19
78855;BME280;68206;59.956;30.234;2023-05-10T04:37:31;102261.03;;;33.21;10.66
78855;BME280;68206;59.956;30.234;2023-05-10T04:39:59;102261.28;;;33.46;9.92
78855;BME280;68206;59.956;30.234;2023-05-10T04:42:29;102265.00;;;33.72;9.81
78855;BME280;68206;59.956;30.234;2023-05-10T04:44:57;102262.06;;;33.74;9.28
78855;BME280;68206;59.956;30.234;2023-05-10T04:47:25;102264.41;;;34.04;9.14
78855;BME280;68206;59.956;30.234;2023-05-10T04:49:53;102255.50;;;34.10;8.57
78855;BME280;68206;59.956;30.234;2023-05-10T04:52:22;102262.09;;;33.99;9.01
78855;BME280;68206;59.956;30.234;2023-05-10T04:54:50;102261.53;;;34.14;9.87
78855;BME280;68206;59.956;30.234;2023-05-10T04:57:18;102265.03;;;34.42;9.33
78855;BME280;68206;59.956;30.234;2023-05-10T04:59:47;102270.56;;;34.50;9.25
78855;BME280;68206;59.956;30.234;2023-05-10T05:02:16;102262.44;;;34.74;9.17
78855;BME280;68206;59.956;30.234;2023-05-10T05:04:44;102268.34;;;34.79;9.16
78855;BME280;68206;59.956;30.234;2023-05-10T05:07:12;102270.16;;;35.04;8.85
78855;BME280;68206;59.956;30.234;2023-05-10T05:09:40;102274.69;;;34.71;8.77
78855;BME280;68206;59.956;30.234;2023-05-10T05:12:08;102277.38;;;35.05;8.90
78855;BME280;68206;59.956;30.234;2023-05-10T05:14:40;102273.88;;;34.87;8.88
78855;BME280;68206;59.956;30.234;2023-05-10T05:17:10;102274.63;;;35.05;8.56
78855;BME280;68206;59.956;30.234;2023-05-10T05:19:38;102277.72;;;35.02;9.21
78855;BME280;68206;59.956;30.234;2023-05-10T05:22:06;102265.38;;;34.80;9.61
78855;BME280;68206;59.956;30.234;2023-05-10T05:24:35;102280.59;;;34.85;9.29
78855;BME280;68206;59.956;30.234;2023-05-10T05:27:04;102269.06;;;34.63;9.46
78855;BME280;68206;59.956;30.234;2023-05-10T05:29:33;102269.91;;;34.30;9.78
78855;BME280;68206;59.956;30.234;2023-05-10T05:32:01;102270.50;;;34.16;9.97
78855;BME280;68206;59.956;30.234;2023-05-10T05:34:32;102265.16;;;34.14;9.79
78855;BME280;68206;59.956;30.234;2023-05-10T05:37:01;102266.31;;;34.63;9.70
78855;BME280;68206;59.956;30.234;2023-05-10T05:39:29;102269.75;;;34.57;9.77
78855;BME280;68206;59.956;30.234;2023-05-10T05:41:57;102265.81;;;35.02;9.47
78855;BME280;68206;59.956;30.234;2023-05-10T05:44:25;102269.41;;;35.52;8.61
78855;BME280;68206;59.956;30.234;2023-05-10T05:46:55;102263.22;;;35.67;8.46
78855;BME280;68206;59.956;30.234;2023-05-10T05:49:23;102261.00;;;35.70;8.70
78855;BME280;68206;59.956;30.234;2023-05-10T05:51:53;102263.41;;;35.73;8.54
78855;BME280;68206;59.956;30.234;2023-05-10T05:54:21;102263.56;;;35.88;8.22
78855;BME280;68206;59.956;30.234;2023-05-10T05:56:49;102267.53;;;36.10;7.89
78855;BME280;68206;59.956;30.234;2023-05-10T05:59:17;102268.94;;;35.81;7.75
78855;BME280;68206;59.956;30.234;2023-05-10T06:01:45;102273.53;;;35.56;7.84
78855;BME280;68206;59.956;30.234;2023-05-10T06:04:13;102265.25;;;35.40;8.56
78855;BME280;68206;59.956;30.234;2023-05-10T06:06:41;102261.34;;;35.91;8.19
78855;BME280;68206;59.956;30.234;2023-05-10T06:09:11;102262.53;;;35.81;7.78
78855;BME280;68206;59.956;30.234;2023-05-10T06:11:40;102269.28;;;36.03;7.81
78855;BME280;68206;59.956;30.234;2023-05-10T06:14:08;102267.16;;;36.13;8.04
78855;BME280;68206;59.956;30.234;2023-05-10T06:16:36;102263.91;;;36.09;7.95
78855;BME280;68206;59.956;30.234;2023-05-10T06:19:04;102256.50;;;36.02;8.14
78855;BME280;68206;59.956;30.234;2023-05-10T06:21:32;102258.34;;;36.33;7.76
78855;BME280;68206;59.956;30.234;2023-05-10T06:24:00;102258.03;;;36.28;7.89
78855;BME280;68206;59.956;30.234;2023-05-10T06:26:30;102260.81;;;35.96;7.97
78855;BME280;68206;59.956;30.234;2023-05-10T06:28:59;102256.28;;;36.35;7.85
78855;BME280;68206;59.956;30.234;2023-05-10T06:31:28;102265.53;;;36.59;8.22
78855;BME280;68206;59.956;30.234;2023-05-10T06:33:56;102266.06;;;36.54;8.04
78855;BME280;68206;59.956;30.234;2023-05-10T06:36:25;102267.59;;;36.57;8.20
78855;BME280;68206;59.956;30.234;2023-05-10T06:38:54;102258.38;;;36.17;8.65
78855;BME280;68206;59.956;30.234;2023-05-10T06:41:22;102269.28;;;35.70;8.42
78855;BME280;68206;59.956;30.234;2023-05-10T06:43:52;102264.59;;;36.19;8.94
78855;BME280;68206;59.956;30.234;2023-05-10T06:46:20;102262.00;;;36.02;8.63
78855;BME280;68206;59.956;30.234;2023-05-10T06:48:48;102263.91;;;36.25;8.57
78855;BME280;68206;59.956;30.234;2023-05-10T06:51:16;102266.31;;;36.28;8.31
78855;BME280;68206;59.956;30.234;2023-05-10T06:53:44;102268.03;;;36.13;8.33
78855;BME280;68206;59.956;30.234;2023-05-10T06:56:12;102268.84;;;35.33;8.77
78855;BME280;68206;59.956;30.234;2023-05-10T06:58:40;102276.31;;;35.56;8.48
78855;BME280;68206;59.956;30.234;2023-05-10T07:01:10;102276.63;;;35.29;8.76
78855;BME280;68206;59.956;30.234;2023-05-10T07:03:38;102272.53;;;35.74;9.11
78855;BME280;68206;59.956;30.234;2023-05-10T07:06:06;102282.53;;;36.15;8.41
78855;BME280;68206;59.956;30.234;2023-05-10T07:08:48;102272.16;;;36.42;8.96
78855;BME280;68206;59.956;30.234;2023-05-10T07:11:16;102277.34;;;36.12;8.76
78855;BME280;68206;59.956;30.234;2023-05-10T07:13:44;102277.88;;;36.32;8.44
78855;BME280;68206;59.956;30.234;2023-05-10T07:16:14;102267.34;;;35.63;9.08
78855;BME280;68206;59.956;30.234;2023-05-10T07:18:42;102270.41;;;35.43;9.38
78855;BME280;68206;59.956;30.234;2023-05-10T07:21:10;102267.19;;;35.80;9.31
78855;BME280;68206;59.956;30.234;2023-05-10T07:23:38;102277.72;;;36.09;9.18
78855;BME280;68206;59.956;30.234;2023-05-10T07:26:10;102277.22;;;35.81;9.29
78855;BME280;68206;59.956;30.234;2023-05-10T07:28:38;102289.47;;;35.87;9.04
78855;BME280;68206;59.956;30.234;2023-05-10T07:31:06;102280.50;;;35.77;9.13
78855;BME280;68206;59.956;30.234;2023-05-10T07:33:35;102279.47;;;35.78;9.19
78855;BME280;68206;59.956;30.234;2023-05-10T07:36:04;102283.19;;;35.28;9.29
78855;BME280;68206;59.956;30.234;2023-05-10T07:38:32;102272.03;;;35.12;9.57
78855;BME280;68206;59.956;30.234;2023-05-10T07:41:00;102272.13;;;35.36;9.85
78855;BME280;68206;59.956;30.234;2023-05-10T07:43:29;102280.94;;;34.90;9.99
78855;BME280;68206;59.956;30.234;2023-05-10T07:45:57;102269.97;;;34.38;9.66
78855;BME280;68206;59.956;30.234;2023-05-10T07:48:27;102279.44;;;33.56;9.89
78855;BME280;68206;59.956;30.234;2023-05-10T07:50:56;102285.03;;;32.92;10.35
78855;BME280;68206;59.956;30.234;2023-05-10T07:53:26;102288.31;;;32.12;11.39
78855;BME280;68206;59.956;30.234;2023-05-10T07:55:56;102276.78;;;31.99;11.43
78855;BME280;68206;59.956;30.234;2023-05-10T07:58:26;102286.88;;;31.50;11.76
78855;BME280;68206;59.956;30.234;2023-05-10T08:00:54;102277.06;;;31.57;12.01
78855;BME280;68206;59.956;30.234;2023-05-10T08:03:23;102284.31;;;31.58;12.11
78855;BME280;68206;59.956;30.234;2023-05-10T08:05:51;102280.28;;;31.82;11.78
78855;BME280;68206;59.956;30.234;2023-05-10T08:08:20;102280.72;;;31.77;11.79
78855;BME280;68206;59.956;30.234;2023-05-10T08:10:50;102285.47;;;32.23;11.46
78855;BME280;68206;59.956;30.234;2023-05-10T08:13:19;102285.75;;;32.20;11.60
78855;BME280;68206;59.956;30.234;2023-05-10T08:15:47;102278.69;;;31.89;11.64
78855;BME280;68206;59.956;30.234;2023-05-10T08:18:15;102271.19;;;31.81;11.70
78855;BME280;68206;59.956;30.234;2023-05-10T08:20:44;102273.78;;;31.83;11.12
78855;BME280;68206;59.956;30.234;2023-05-10T08:23:12;102276.94;;;31.97;11.25
78855;BME280;68206;59.956;30.234;2023-05-10T08:25:41;102280.59;;;31.59;11.28
78855;BME280;68206;59.956;30.234;2023-05-10T08:28:10;102281.81;;;30.86;11.43
78855;BME280;68206;59.956;30.234;2023-05-10T08:30:38;102266.66;;;30.22;12.00
78855;BME280;68206;59.956;30.234;2023-05-10T08:33:06;102278.97;;;29.32;13.15
78855;BME280;68206;59.956;30.234;2023-05-10T08:35:34;102284.97;;;28.36;13.21
78855;BME280;68206;59.956;30.234;2023-05-10T08:38:02;102278.63;;;27.31;14.52
78855;BME280;68206;59.956;30.234;2023-05-10T08:40:30;102277.19;;;26.40;15.49
78855;BME280;68206;59.956;30.234;2023-05-10T08:43:04;102277.06;;;25.64;16.42
78855;BME280;68206;59.956;30.234;2023-05-10T08:45:37;102283.56;;;24.94;16.81
78855;BME280;68206;59.956;30.234;2023-05-10T08:48:07;102274.97;;;24.59;17.58
78855;BME280;68206;59.956;30.234;2023-05-10T08:50:36;102261.09;;;24.21;17.74
78855;BME280;68206;59.956;30.234;2023-05-10T08:53:06;102270.56;;;23.84;17.75
78855;BME280;68206;59.956;30.234;2023-05-10T08:55:37;102270.94;;;23.48;18.20
78855;BME280;68206;59.956;30.234;2023-05-10T08:58:07;102273.03;;;23.11;18.76
78855;BME280;68206;59.956;30.234;2023-05-10T09:00:36;102267.28;;;22.86;19.04
78855;BME280;68206;59.956;30.234;2023-05-10T09:03:05;102270.94;;;22.52;19.35
78855;BME280;68206;59.956;30.234;2023-05-10T09:05:33;102278.97;;;22.21;19.88
78855;BME280;68206;59.956;30.234;2023-05-10T09:08:04;102274.00;;;21.96;20.33
78855;BME280;68206;59.956;30.234;2023-05-10T09:10:32;102270.72;;;21.89;20.23
78855;BME280;68206;59.956;30.234;2023-05-10T09:13:01;102275.78;;;21.78;20.07
78855;BME280;68206;59.956;30.234;2023-05-10T09:15:31;102274.66;;;21.48;20.34
78855;BME280;68206;59.956;30.234;2023-05-10T09:18:00;102278.94;;;21.35;20.60
78855;BME280;68206;59.956;30.234;2023-05-10T09:20:29;102275.91;;;21.23;20.60
78855;BME280;68206;59.956;30.234;2023-05-10T09:22:57;102275.47;;;21.12;21.22
78855;BME280;68206;59.956;30.234;2023-05-10T09:25:25;102285.28;;;20.96;21.17
78855;BME280;68206;59.956;30.234;2023-05-10T09:27:54;102269.47;;;20.88;21.26
78855;BME280;68206;59.956;30.234;2023-05-10T09:30:27;102277.25;;;20.76;21.59
78855;BME280;68206;59.956;30.234;2023-05-10T09:32:57;102273.91;;;20.71;21.52
78855;BME280;68206;59.956;30.234;2023-05-10T09:35:28;102276.66;;;20.50;22.02
78855;BME280;68206;59.956;30.234;2023-05-10T09:37:59;102277.69;;;20.48;21.96
78855;BME280;68206;59.956;30.234;2023-05-10T09:40:29;102266.81;;;20.49;21.60
78855;BME280;68206;59.956;30.234;2023-05-10T09:42:59;102263.69;;;20.40;21.71
78855;BME280;68206;59.956;30.234;2023-05-10T09:45:29;102266.44;;;20.38;21.51
78855;BME280;68206;59.956;30.234;2023-05-10T09:48:00;102267.72;;;20.30;21.19
78855;BME280;68206;59.956;30.234;2023-05-10T09:50:30;102265.38;;;20.22;21.71
78855;BME280;68206;59.956;30.234;2023-05-10T09:52:59;102273.13;;;20.09;21.85
78855;BME280;68206;59.956;30.234;2023-05-10T09:55:38;102272.50;;;20.03;21.30
78855;BME280;68206;59.956;30.234;2023-05-10T09:58:08;102265.38;;;20.02;20.80
78855;BME280;68206;59.956;30.234;2023-05-10T10:00:39;102272.13;;;19.92;20.91
78855;BME280;68206;59.956;30.234;2023-05-10T10:03:13;102270.28;;;19.72;21.94
78855;BME280;68206;59.956;30.234;2023-05-10T10:05:43;102266.84;;;19.68;21.58
78855;BME280;68206;59.956;30.234;2023-05-10T10:08:12;102266.16;;;19.63;22.02
78855;BME280;68206;59.956;30.234;2023-05-10T10:10:41;102270.94;;;19.57;22.06
78855;BME280;68206;59.956;30.234;2023-05-10T10:13:12;102274.81;;;19.50;22.20
78855;BME280;68206;59.956;30.234;2023-05-10T10:15:42;102267.22;;;19.38;22.16
78855;BME280;68206;59.956;30.234;2023-05-10T10:18:14;102265.66;;;19.32;22.98
78855;BME280;68206;59.956;30.234;2023-05-10T10:20:42;102254.16;;;19.28;22.99
78855;BME280;68206;59.956;30.234;2023-05-10T10:23:10;102257.84;;;19.26;22.92
78855;BME280;68206;59.956;30.234;2023-05-10T10:25:42;102258.72;;;19.26;22.85
78855;BME280;68206;59.956;30.234;2023-05-10T10:28:22;102262.78;;;19.15;22.98
78855;BME280;68206;59.956;30.234;2023-05-10T10:30:54;102255.91;;;19.08;23.14
78855;BME280;68206;59.956;30.234;2023-05-10T10:33:50;102251.97;;;18.94;23.25
78855;BME280;68206;59.956;30.234;2023-05-10T10:36:20;102254.66;;;18.94;22.95
78855;BME280;68206;59.956;30.234;2023-05-10T10:38:55;102252.88;;;18.93;23.21
78855;BME280;68206;59.956;30.234;2023-05-10T10:41:31;102250.63;;;18.83;23.01
78855;BME280;68206;59.956;30.234;2023-05-10T10:44:22;102248.16;;;18.78;22.83
78855;BME280;68206;59.956;30.234;2023-05-10T10:47:06;102245.41;;;18.80;23.39
78855;BME280;68206;59.956;30.234;2023-05-10T10:49:49;102241.19;;;18.73;22.91
78855;BME280;68206;59.956;30.234;2023-05-10T10:52:23;102249.13;;;18.76;22.88
78855;BME280;68206;59.956;30.234;2023-05-10T10:55:00;102239.25;;;18.76;22.63
78855;BME280;68206;59.956;30.234;2023-05-10T10:57:43;102246.63;;;18.71;22.44
78855;BME280;68206;59.956;30.234;2023-05-10T11:00:28;102239.03;;;18.59;22.03
78855;BME280;68206;59.956;30.234;2023-05-10T11:02:59;102236.22;;;18.62;21.88
78855;BME280;68206;59.956;30.234;2023-05-10T11:05:47;102238.81;;;18.65;21.68
78855;BME280;68206;59.956;30.234;2023-05-10T11:08:19;102238.03;;;18.62;21.81
78855;BME280;68206;59.956;30.234;2023-05-10T11:11:02;102229.34;;;18.55;21.95
78855;BME280;68206;59.956;30.234;2023-05-10T11:13:37;102240.94;;;18.56;22.18
78855;BME280;68206;59.956;30.234;2023-05-10T11:16:13;102237.50;;;18.52;21.83
78855;BME280;68206;59.956;30.234;2023-05-10T11:18:52;102235.88;;;18.48;21.95
78855;BME280;68206;59.956;30.234;2023-05-10T11:21:22;102228.72;;;18.47;21.97
78855;BME280;68206;59.956;30.234;2023-05-10T11:23:51;102231.53;;;18.44;22.28
78855;BME280;68206;59.956;30.234;2023-05-10T11:26:22;102232.44;;;18.43;22.44
78855;BME280;68206;59.956;30.234;2023-05-10T11:28:53;102226.47;;;18.36;22.60
78855;BME280;68206;59.956;30.234;2023-05-10T11:31:23;102228.28;;;18.36;22.50
78855;BME280;68206;59.956;30.234;2023-05-10T11:33:55;102226.16;;;18.21;22.68
78855;BME280;68206;59.956;30.234;2023-05-10T11:36:27;102222.41;;;18.25;22.55
78855;BME280;68206;59.956;30.234;2023-05-10T11:38:56;102213.41;;;18.26;22.72
78855;BME280;68206;59.956;30.234;2023-05-10T11:41:27;102218.09;;;18.21;22.93
78855;BME280;68206;59.956;30.234;2023-05-10T11:43:57;102214.53;;;18.20;22.56
78855;BME280;68206;59.956;30.234;2023-05-10T11:46:27;102221.66;;;18.21;22.67
78855;BME280;68206;59.956;30.234;2023-05-10T11:48:58;102218.16;;;18.19;22.71
78855;BME280;68206;59.956;30.234;2023-05-10T11:51:33;102208.47;;;18.15;22.69
78855;BME280;68206;59.956;30.234;2023-05-10T11:54:06;102208.56;;;18.12;23.06
78855;BME280;68206;59.956;30.234;2023-05-10T11:56:36;102204.44;;;18.03;22.98
78855;BME280;68206;59.956;30.234;2023-05-10T11:59:05;102204.47;;;18.02;23.57
78855;BME280;68206;59.956;30.234;2023-05-10T12:01:33;102209.97;;;17.99;23.73
78855;BME280;68206;59.956;30.234;2023-05-10T12:04:02;102207.38;;;17.96;23.92
78855;BME280;68206;59.956;30.234;2023-05-10T12:06:32;102203.00;;;17.93;24.40
78855;BME280;68206;59.956;30.234;2023-05-10T12:09:06;102198.94;;;17.82;24.25
78855;BME280;68206;59.956;30.234;2023-05-10T12:11:37;102193.75;;;17.77;25.10
78855;BME280;68206;59.956;30.234;2023-05-10T12:14:10;102194.91;;;17.70;25.42
78855;BME280;68206;59.956;30.234;2023-05-10T12:16:38;102196.75;;;17.68;25.85
78855;BME280;68206;59.956;30.234;2023-05-10T12:19:07;102192.38;;;17.65;25.95
78855;BME280;68206;59.956;30.234;2023-05-10T12:21:36;102188.06;;;17.61;26.31
78855;BME280;68206;59.956;30.234;2023-05-10T12:24:07;102198.81;;;17.60;26.24
78855;BME280;68206;59.956;30.234;2023-05-10T12:26:36;102189.19;;;17.54;26.84
78855;BME280;68206;59.956;30.234;2023-05-10T12:29:14;102195.66;;;17.49;26.86
78855;BME280;68206;59.956;30.234;2023-05-10T12:31:51;102185.97;;;17.43;26.89
78855;BME280;68206;59.956;30.234;2023-05-10T12:34:24;102191.41;;;17.42;26.96
78855;BME280;68206;59.956;30.234;2023-05-10T12:36:54;102194.09;;;17.42;26.74
78855;BME280;68206;59.956;30.234;2023-05-10T12:39:23;102193.31;;;17.38;26.28
78855;BME280;68206;59.956;30.234;2023-05-10T12:41:51;102185.69;;;17.26;26.14
78855;BME280;68206;59.956;30.234;2023-05-10T12:44:20;102184.81;;;17.25;26.08
78855;BME280;68206;59.956;30.234;2023-05-10T12:46:48;102186.59;;;17.25;25.85
78855;BME280;68206;59.956;30.234;2023-05-10T12:49:16;102180.56;;;17.18;25.77
78855;BME280;68206;59.956;30.234;2023-05-10T12:51:46;102185.19;;;17.15;25.62
78855;BME280;68206;59.956;30.234;2023-05-10T12:54:15;102186.06;;;17.15;25.94
78855;BME280;68206;59.956;30.234;2023-05-10T12:56:43;102183.38;;;17.15;25.76
78855;BME280;68206;59.956;30.234;2023-05-10T12:59:12;102179.81;;;17.15;25.91
78855;BME280;68206;59.956;30.234;2023-05-10T13:01:40;102170.84;;;17.16;25.62
78855;BME280;68206;59.956;30.234;2023-05-10T13:04:08;102184.28;;;17.14;25.60